createdAt,value
2023-03-20T00:00:53.399Z,67.13
2023-03-20T00:03:56.637Z,67.21
2023-03-20T00:06:59.274Z,67.37
2023-03-20T00:10:02.923Z,67.25
2023-03-20T00:13:06.977Z,66.58
2023-03-20T00:16:11.617Z,66.33
2023-03-20T00:19:30.277Z,66.42
2023-03-20T00:22:35.781Z,66.08
2023-03-20T00:25:40.390Z,65.71
2023-03-20T00:28:44.731Z,65.65
2023-03-20T00:31:47.780Z,65.25
2023-03-20T00:34:50.637Z,65.30
2023-03-20T00:37:53.519Z,65.79
2023-03-20T00:40:56.270Z,65.67
2023-03-20T00:44:01.340Z,65.96
2023-03-20T00:47:13.879Z,66.08
2023-03-20T00:50:22.520Z,66.87
2023-03-20T00:53:25.032Z,66.93
2023-03-20T00:56:36.776Z,67.79
2023-03-20T00:59:42.672Z,67.78
2023-03-20T01:02:46.140Z,67.89
2023-03-20T01:05:50.081Z,67.93
2023-03-20T01:08:52.849Z,67.52
2023-03-20T01:11:55.438Z,68.71
2023-03-20T01:14:58.894Z,68.53
2023-03-20T01:18:01.870Z,68.49
2023-03-20T01:21:04.547Z,68.67
2023-03-20T01:24:07.436Z,69.27
2023-03-20T01:27:20.054Z,70.85
2023-03-20T01:30:25.669Z,69.85
2023-03-20T01:33:29.614Z,69.04
2023-03-20T01:36:32.154Z,69.22
2023-03-20T01:39:36.478Z,70.13
2023-03-20T01:42:39.918Z,70.07
2023-03-20T01:45:53.570Z,69.87
2023-03-20T01:49:08.159Z,69.91
2023-03-20T01:52:11.685Z,70.27
2023-03-20T01:55:14.434Z,69.74
2023-03-20T01:58:23.154Z,69.66
2023-03-20T02:01:28.294Z,68.66
2023-03-20T02:04:37.734Z,69.04
2023-03-20T02:07:49.997Z,67.98
2023-03-20T02:10:55.533Z,69.06
2023-03-20T02:14:03.021Z,68.80
2023-03-20T02:17:13.620Z,68.70
2023-03-20T02:20:30.933Z,68.61
2023-03-20T02:24:05.812Z,69.00
2023-03-20T02:27:35.491Z,68.88
2023-03-20T02:30:41.082Z,68.42
2023-03-20T02:33:55.979Z,67.70
2023-03-20T02:37:23.381Z,67.76
2023-03-20T02:40:25.891Z,67.86
2023-03-20T02:43:46.831Z,69.19
2023-03-20T02:47:12.886Z,70.99
2023-03-20T02:50:50.561Z,69.81
2023-03-20T02:53:58.479Z,67.15
2023-03-20T02:57:08.765Z,67.52
2023-03-20T03:00:36.801Z,68.58
2023-03-20T03:03:52.276Z,69.04
2023-03-20T03:06:56.504Z,66.87
2023-03-20T03:10:18.431Z,66.28
2023-03-20T03:13:29.350Z,66.09
2023-03-20T03:16:35.617Z,68.51
2023-03-20T03:19:40.165Z,68.81
2023-03-20T03:22:42.752Z,69.98
2023-03-20T03:25:47.006Z,70.15
2023-03-20T03:28:53.918Z,71.21
2023-03-20T03:31:56.766Z,71.54
2023-03-20T03:35:00.986Z,71.13
2023-03-20T03:38:18.881Z,70.87
2023-03-20T03:41:50.032Z,71.71
2023-03-20T03:45:00.583Z,71.11
2023-03-20T03:48:15.690Z,71.50
2023-03-20T03:51:21.682Z,71.69
2023-03-20T03:54:37.343Z,71.85
2023-03-20T03:58:03.914Z,71.96
2023-03-20T04:01:07.939Z,71.66
2023-03-20T04:04:13.036Z,71.78
2023-03-20T04:07:16.159Z,71.45
2023-03-20T04:10:19.972Z,71.14
2023-03-20T04:13:22.685Z,70.87
2023-03-20T04:16:25.961Z,69.60
2023-03-20T04:19:29.061Z,69.58
2023-03-20T04:22:34.921Z,69.18
2023-03-20T04:25:42.999Z,69.34
2023-03-20T04:28:45.864Z,69.45
2023-03-20T04:32:07.423Z,69.12
2023-03-20T04:35:35.176Z,69.96
2023-03-20T04:38:47.526Z,70.23
2023-03-20T04:41:50.038Z,69.84
2023-03-20T04:44:52.861Z,70.12
2023-03-20T04:47:55.562Z,68.79
2023-03-20T04:50:59.344Z,68.71
2023-03-20T04:54:14.692Z,69.36
2023-03-20T04:57:18.645Z,69.10
2023-03-20T05:00:21.790Z,70.34
2023-03-20T05:03:24.723Z,70.17
2023-03-20T05:06:28.587Z,70.53
2023-03-20T05:09:31.781Z,70.98
2023-03-20T05:12:37.962Z,70.35
2023-03-20T05:16:02.227Z,71.33
2023-03-20T05:19:19.999Z,71.80
2023-03-20T05:22:49.395Z,72.04
2023-03-20T05:26:09.524Z,72.46
2023-03-20T05:29:30.435Z,73.36
2023-03-20T05:32:53.167Z,73.45
2023-03-20T05:36:06.392Z,73.20
2023-03-20T05:39:24.154Z,73.13
2023-03-20T05:42:53.215Z,72.72
2023-03-20T05:46:13.634Z,72.71
2023-03-20T05:49:28.285Z,72.59
2023-03-20T05:53:06.446Z,71.68
2023-03-20T05:56:24.831Z,69.98
2023-03-20T05:59:45.990Z,68.81
2023-03-20T06:03:02.401Z,67.87
2023-03-20T06:06:24.840Z,70.16
2023-03-20T06:09:30.117Z,68.61
2023-03-20T06:12:34.174Z,68.02
2023-03-20T06:15:37.423Z,66.63
2023-03-20T06:18:49.430Z,64.84
2023-03-20T06:21:52.217Z,64.69
2023-03-20T06:24:57.541Z,63.72
2023-03-20T06:28:06.572Z,64.03
2023-03-20T06:31:10.237Z,63.77
2023-03-20T06:34:13.322Z,62.60
2023-03-20T06:37:20.963Z,61.05
2023-03-20T06:40:25.755Z,60.34
2023-03-20T06:43:28.526Z,60.26
2023-03-20T06:46:31.450Z,58.50
2023-03-20T06:49:34.171Z,58.82
2023-03-20T06:52:36.695Z,59.07
2023-03-20T06:56:04.403Z,58.37
2023-03-20T06:59:07.700Z,59.61
2023-03-20T07:02:11.788Z,59.15
2023-03-20T07:05:16.223Z,58.10
2023-03-20T07:08:19.314Z,58.32
2023-03-20T07:11:22.650Z,57.43
2023-03-20T07:14:28.984Z,56.56
2023-03-20T07:17:40.243Z,56.25
2023-03-20T07:20:43.630Z,56.35
2023-03-20T07:23:46.779Z,56.80
2023-03-20T07:26:50.198Z,57.67
2023-03-20T07:29:53.679Z,56.99
2023-03-20T07:32:56.439Z,56.57
2023-03-20T07:36:04.313Z,55.08
2023-03-20T07:39:07.223Z,56.80
2023-03-20T07:42:11.833Z,56.63
2023-03-20T07:45:21.221Z,57.42
2023-03-20T07:48:23.839Z,56.14
2023-03-20T07:51:26.946Z,56.09
2023-03-20T07:54:29.620Z,54.68
2023-03-20T07:57:33.840Z,54.55
2023-03-20T08:00:36.596Z,53.73
2023-03-20T08:03:40.025Z,52.83
2023-03-20T08:06:44.029Z,52.50
2023-03-20T08:09:46.807Z,51.75
2023-03-20T08:12:49.490Z,50.54
2023-03-20T08:15:52.141Z,52.30
2023-03-20T08:19:01.484Z,52.10
2023-03-20T08:22:07.590Z,50.97
2023-03-20T08:25:10.740Z,50.98
2023-03-20T08:28:13.388Z,50.39
2023-03-20T08:31:17.946Z,50.10
2023-03-20T08:34:22.911Z,50.46
2023-03-20T08:37:27.100Z,49.76
2023-03-20T08:40:30.329Z,51.38
2023-03-20T08:43:32.976Z,49.38
2023-03-20T08:46:35.636Z,51.43
2023-03-20T08:49:38.243Z,49.69
2023-03-20T08:52:44.465Z,50.12
2023-03-20T08:55:54.270Z,49.58
2023-03-20T08:58:57.248Z,50.48
2023-03-20T09:01:59.910Z,50.03
2023-03-20T09:05:02.656Z,50.31
2023-03-20T09:08:05.769Z,50.28
2023-03-20T09:11:08.446Z,50.62
2023-03-20T09:14:11.149Z,50.92
2023-03-20T09:17:13.854Z,50.83
2023-03-20T09:20:16.602Z,51.23
2023-03-20T09:23:19.652Z,51.22
2023-03-20T09:26:22.856Z,52.51
2023-03-20T09:29:25.596Z,52.87
2023-03-20T09:32:28.132Z,52.39
2023-03-20T09:35:31.369Z,53.20
2023-03-20T09:38:34.074Z,53.96
2023-03-20T09:41:52.966Z,54.63
2023-03-20T09:45:07.941Z,53.50
2023-03-20T09:48:28.977Z,54.07
2023-03-20T09:51:36.847Z,54.88
2023-03-20T09:54:54.201Z,53.65
2023-03-20T09:57:59.494Z,54.25
2023-03-20T10:01:04.476Z,53.58
2023-03-20T10:04:10.086Z,53.37
2023-03-20T10:07:14.202Z,53.42
2023-03-20T10:10:20.776Z,53.44
2023-03-20T10:13:38.604Z,52.85
2023-03-20T10:16:59.108Z,52.95
2023-03-20T10:20:14.365Z,52.25
2023-03-20T10:23:24.823Z,52.51
2023-03-20T10:26:28.012Z,51.56
2023-03-20T10:30:05.965Z,50.70
2023-03-20T10:33:14.651Z,50.71
2023-03-20T10:36:54.561Z,50.20
2023-03-20T10:40:00.117Z,49.68
2023-03-20T10:43:25.041Z,50.33
2023-03-20T10:46:30.864Z,50.63
2023-03-20T10:49:57.148Z,51.19
2023-03-20T10:53:00.793Z,50.03
2023-03-20T10:56:09.505Z,51.48
2023-03-20T10:59:29.205Z,51.45
2023-03-20T11:02:35.388Z,51.26
2023-03-20T11:05:42.276Z,51.45
2023-03-20T11:08:48.738Z,51.17
2023-03-20T11:11:53.818Z,51.55
2023-03-20T11:15:01.108Z,52.28
2023-03-20T11:18:11.168Z,51.71
2023-03-20T11:21:23.294Z,50.82
2023-03-20T11:24:41.260Z,50.59
2023-03-20T11:27:43.903Z,49.88
2023-03-20T11:31:03.603Z,50.09
2023-03-20T11:34:16.151Z,49.74
2023-03-20T11:37:29.110Z,49.72
2023-03-20T11:40:32.873Z,50.00
2023-03-20T11:43:38.609Z,50.21
2023-03-20T11:46:41.187Z,50.54
2023-03-20T11:49:50.658Z,48.41
2023-03-20T11:52:53.919Z,49.01
2023-03-20T11:56:23.235Z,48.66
2023-03-20T11:59:34.860Z,48.25
2023-03-20T12:02:38.375Z,49.55
2023-03-20T12:05:41.082Z,48.50
2023-03-20T12:08:49.324Z,48.50
2023-03-20T12:12:01.412Z,47.88
2023-03-20T12:15:13.434Z,48.66
2023-03-20T12:18:40.064Z,49.03
2023-03-20T12:21:48.450Z,47.89
2023-03-20T12:25:09.990Z,47.67
2023-03-20T12:28:21.861Z,47.77
2023-03-20T12:31:26.825Z,48.00
2023-03-20T12:34:36.089Z,48.14
2023-03-20T12:37:38.780Z,49.08
2023-03-20T12:40:44.070Z,49.32
2023-03-20T12:44:23.384Z,48.54
2023-03-20T12:47:44.491Z,48.85
2023-03-20T12:51:17.105Z,47.49
2023-03-20T12:54:37.328Z,46.04
2023-03-20T12:58:11.016Z,46.79
2023-03-20T13:01:38.196Z,45.87
2023-03-20T13:04:46.889Z,47.03
2023-03-20T13:08:02.975Z,47.03
2023-03-20T13:11:14.852Z,46.55
2023-03-20T13:14:30.867Z,46.69
2023-03-20T13:18:10.659Z,48.33
2023-03-20T13:21:17.370Z,45.74
2023-03-20T13:24:28.559Z,46.16
2023-03-20T13:27:41.950Z,46.85
2023-03-20T13:31:16.022Z,45.94
2023-03-20T13:34:54.100Z,46.08
2023-03-20T13:38:03.705Z,44.76
2023-03-20T13:41:10.201Z,45.54
2023-03-20T13:44:15.515Z,45.09
2023-03-20T13:47:25.184Z,44.19
2023-03-20T13:51:05.687Z,44.90
2023-03-20T13:54:20.622Z,45.29
2023-03-20T13:57:36.490Z,45.31
2023-03-20T14:00:47.611Z,45.60
2023-03-20T14:03:51.025Z,46.81
2023-03-20T14:06:55.651Z,45.52
2023-03-20T14:09:58.394Z,46.40
2023-03-20T14:13:03.652Z,45.89
2023-03-20T14:16:10.894Z,46.20
2023-03-20T14:19:22.131Z,47.04
2023-03-20T14:22:30.115Z,47.29
2023-03-20T14:25:40.648Z,47.62
2023-03-20T14:29:01.043Z,47.82
2023-03-20T14:32:12.904Z,47.74
2023-03-20T14:35:18.400Z,48.71
2023-03-20T14:38:21.057Z,48.83
2023-03-20T14:41:50.086Z,50.00
2023-03-20T14:45:08.017Z,50.39
2023-03-20T14:48:37.902Z,50.69
2023-03-20T14:51:45.060Z,50.95
2023-03-20T14:54:54.961Z,51.27
2023-03-20T14:58:06.477Z,51.69
2023-03-20T15:01:19.590Z,51.44
2023-03-20T15:04:36.357Z,52.05
2023-03-20T15:07:39.857Z,52.12
2023-03-20T15:10:52.507Z,51.70
2023-03-20T15:13:56.207Z,51.57
2023-03-20T15:17:00.584Z,51.63
2023-03-20T15:20:07.198Z,51.74
2023-03-20T15:23:09.994Z,51.84
2023-03-20T15:26:18.023Z,52.52
2023-03-20T15:29:20.789Z,52.86
2023-03-20T15:32:24.149Z,52.86
2023-03-20T15:35:27.793Z,53.32
2023-03-20T15:38:33.551Z,53.65
2023-03-20T15:41:38.489Z,53.65
2023-03-20T15:44:43.210Z,53.56
2023-03-20T15:47:45.986Z,53.61
2023-03-20T15:51:00.712Z,54.46
2023-03-20T15:54:08.114Z,55.19
2023-03-20T15:57:19.897Z,55.14
2023-03-20T16:00:45.934Z,55.60
2023-03-20T16:03:49.386Z,55.43
2023-03-20T16:07:00.633Z,55.84
2023-03-20T16:10:03.525Z,55.73
2023-03-20T16:13:08.013Z,55.84
2023-03-20T16:16:20.424Z,55.97
2023-03-20T16:19:25.129Z,56.52
2023-03-20T16:22:31.123Z,56.97
2023-03-20T16:25:35.653Z,57.10
2023-03-20T16:28:39.054Z,56.97
2023-03-20T16:31:54.637Z,58.16
2023-03-20T16:34:58.691Z,57.86
2023-03-20T16:38:05.910Z,58.01
2023-03-20T16:41:16.686Z,58.12
2023-03-20T16:44:29.312Z,59.36
2023-03-20T16:47:36.690Z,59.10
2023-03-20T16:50:40.939Z,58.87
2023-03-20T16:53:49.210Z,59.36
2023-03-20T16:56:53.760Z,59.39
2023-03-20T17:00:02.177Z,60.05
2023-03-20T17:03:26.910Z,61.00
2023-03-20T17:06:37.961Z,61.21
2023-03-20T17:09:55.158Z,61.82
2023-03-20T17:12:57.871Z,61.80
2023-03-20T17:16:00.763Z,60.92
2023-03-20T17:19:16.449Z,62.34
2023-03-20T17:22:22.507Z,62.46
2023-03-20T17:25:25.358Z,62.24
2023-03-20T17:28:34.669Z,62.52
2023-03-20T17:31:37.485Z,62.30
2023-03-20T17:34:40.817Z,62.52
2023-03-20T17:37:44.137Z,62.97
2023-03-20T17:40:50.410Z,62.59
2023-03-20T17:43:54.281Z,64.83
2023-03-20T17:46:59.339Z,65.79
2023-03-20T17:50:02.309Z,66.09
2023-03-20T17:53:05.154Z,64.94
2023-03-20T17:56:15.313Z,65.13
2023-03-20T17:59:18.184Z,65.63
2023-03-20T18:02:21.218Z,65.91
2023-03-20T18:05:24.455Z,65.43
2023-03-20T18:08:27.163Z,66.40
2023-03-20T18:11:30.298Z,66.98
2023-03-20T18:14:33.371Z,66.86
2023-03-20T18:17:36.386Z,67.09
2023-03-20T18:20:41.641Z,66.71
2023-03-20T18:23:45.394Z,67.35
2023-03-20T18:26:48.775Z,68.07
2023-03-20T18:29:52.663Z,67.77
2023-03-20T18:32:55.739Z,68.42
2023-03-20T18:36:00.802Z,69.92
2023-03-20T18:39:05.203Z,70.59
2023-03-20T18:42:08.449Z,70.84
2023-03-20T18:45:12.105Z,71.03
2023-03-20T18:48:15.546Z,71.28
2023-03-20T18:51:19.126Z,71.43
2023-03-20T18:54:21.858Z,72.17
2023-03-20T18:57:24.594Z,71.99
2023-03-20T19:00:43.194Z,72.69
2023-03-20T19:03:47.131Z,72.22
2023-03-20T19:06:50.039Z,72.90
2023-03-20T19:09:52.799Z,71.31
2023-03-20T19:12:56.294Z,71.68
2023-03-20T19:15:59.307Z,71.99
2023-03-20T19:19:04.474Z,71.12
2023-03-20T19:22:13.012Z,70.65
2023-03-20T19:25:18.633Z,72.10
2023-03-20T19:28:40.653Z,71.21
2023-03-20T19:31:44.061Z,70.76
2023-03-20T19:35:35.298Z,69.90
2023-03-20T19:38:14.953Z,70.84
2023-03-20T19:41:19.933Z,69.59
2023-03-20T19:44:22.798Z,68.03
2023-03-20T19:47:25.681Z,68.68
2023-03-20T19:50:34.246Z,69.28
2023-03-20T19:53:37.000Z,70.92
2023-03-20T19:56:40.476Z,71.64
2023-03-20T19:59:44.030Z,72.60
2023-03-20T20:02:47.895Z,72.57
2023-03-20T20:05:53.165Z,72.91
2023-03-20T20:08:56.050Z,72.93
2023-03-20T20:11:58.966Z,72.70
2023-03-20T20:15:01.802Z,72.66
2023-03-20T20:18:04.649Z,74.06
2023-03-20T20:24:30.332Z,75.55
2023-03-20T20:27:33.674Z,74.88
2023-03-20T20:30:37.247Z,75.64
2023-03-20T20:33:41.123Z,76.55
2023-03-20T20:40:10.922Z,76.89
2023-03-20T20:43:39.042Z,76.21
2023-03-20T20:46:36.702Z,77.06
2023-03-20T20:49:40.140Z,77.64
2023-03-20T20:52:43.538Z,77.98
2023-03-20T20:55:46.081Z,78.33
2023-03-20T20:58:48.693Z,78.86
2023-03-20T21:01:52.264Z,78.12
2023-03-20T21:04:55.569Z,78.38
2023-03-20T21:07:58.400Z,77.77
2023-03-20T21:11:04.362Z,78.15
2023-03-20T21:14:07.051Z,78.34
2023-03-20T21:17:10.757Z,77.82
2023-03-20T21:20:14.001Z,77.55
2023-03-20T21:23:16.927Z,78.03
2023-03-20T21:26:19.916Z,78.04
2023-03-20T21:29:22.629Z,78.14
2023-03-20T21:32:25.522Z,77.58
2023-03-20T21:35:28.962Z,77.21
2023-03-20T21:41:55.891Z,77.39
2023-03-20T21:45:53.275Z,77.36
2023-03-20T21:49:03.864Z,76.69
2023-03-20T22:02:09.308Z,76.58
2023-03-20T22:09:30.856Z,76.73
2023-03-20T22:23:00.386Z,74.98
2023-03-20T22:26:18.271Z,73.88
2023-03-20T22:36:36.055Z,74.12
2023-03-20T22:40:15.223Z,73.24
2023-03-20T22:46:09.961Z,72.90
2023-03-20T22:49:15.067Z,73.37
2023-03-20T22:52:31.765Z,73.21
2023-03-20T22:55:37.856Z,72.99
2023-03-20T22:58:40.781Z,73.41
2023-03-20T23:01:43.330Z,73.41
2023-03-20T23:04:48.233Z,73.23
2023-03-20T23:07:50.921Z,73.17
2023-03-20T23:10:53.526Z,72.73
2023-03-20T23:13:56.531Z,72.88
2023-03-20T23:16:59.664Z,72.36
2023-03-20T23:20:11.326Z,72.49
2023-03-20T23:23:15.650Z,71.86
2023-03-20T23:26:22.483Z,72.13
2023-03-20T23:29:25.450Z,72.84
2023-03-20T23:32:28.000Z,72.82
2023-03-20T23:35:30.511Z,72.95
2023-03-20T23:38:33.157Z,72.85
2023-03-20T23:42:02.429Z,73.13
2023-03-20T23:45:04.454Z,73.43
2023-03-20T23:48:13.313Z,73.10
2023-03-20T23:51:15.895Z,73.52
2023-03-20T23:54:18.566Z,73.19
2023-03-20T23:57:21.182Z,72.42
